Time;durP1;ratioP1;P1;durP2;ratioP2;P2;SDS_P1;SDS_P2;PMS_P1;PMS_P2;Temp;Humidity;BMP_temperature;BMP_pressure;BME280_temperature;BME280_humidity;BME280_pressure;Samples;Min_cycle;Max_cycle;Signal;HPM_P1;HPM_P2
2022/07/13 00:02:06;;;;;;;9.23;2.10;;;;;;;23.91;72.88;101041.50;4995496;28;20038;-85
2022/07/13 00:04:31;;;;;;;6.70;2.03;;;;;;;23.95;72.57;101042.69;4995187;28;20101;-83
2022/07/13 00:06:57;;;;;;;4.68;1.80;;;;;;;23.77;73.54;101039.25;4995740;28;20070;-84
2022/07/13 00:09:22;;;;;;;10.95;2.30;;;;;;;23.79;73.84;101043.41;4995128;28;20060;-83
2022/07/13 00:11:48;;;;;;;14.90;2.25;;;;;;;23.90;73.52;101039.84;4993873;28;20030;-84
2022/07/13 00:14:13;;;;;;;8.20;2.38;;;;;;;23.89;73.33;101048.22;4993511;28;20097;-85
2022/07/13 00:16:39;;;;;;;6.88;2.20;;;;;;;23.81;74.25;101051.25;4993648;28;20046;-84
2022/07/13 00:19:07;;;;;;;7.82;2.35;;;;;;;23.80;74.94;101050.44;4994728;28;20042;-84
2022/07/13 00:21:33;;;;;;;6.10;2.35;;;;;;;23.66;75.10;101052.56;4994961;28;20049;-84
2022/07/13 00:23:59;;;;;;;8.02;2.67;;;;;;;23.54;76.67;101050.91;4994649;28;20056;-83
2022/07/13 00:26:25;;;;;;;10.18;2.10;;;;;;;23.34;79.20;101050.38;4995199;28;20034;-83
2022/07/13 00:28:50;;;;;;;11.27;2.42;;;;;;;23.23;80.69;101059.31;4994795;28;20069;-81
2022/07/13 00:31:16;;;;;;;4.60;2.40;;;;;;;23.03;82.13;101051.50;4994990;28;20046;-85
2022/07/13 00:33:41;;;;;;;8.40;2.50;;;;;;;23.04;82.43;101056.66;4995083;28;20034;-83
2022/07/13 00:36:07;;;;;;;7.63;2.83;;;;;;;22.94;83.98;101061.81;4977392;28;20073;-84
2022/07/13 00:38:35;;;;;;;9.52;2.80;;;;;;;23.05;83.07;101066.44;4994749;28;20270;-84
2022/07/13 00:41:00;;;;;;;9.27;2.33;;;;;;;23.09;82.70;101072.22;4994867;28;20027;-84
2022/07/13 00:43:26;;;;;;;7.40;3.00;;;;;;;23.05;83.61;101068.31;4977068;28;20138;-84
2022/07/13 00:45:52;;;;;;;10.50;3.38;;;;;;;22.99;83.45;101086.28;4994711;28;20502;-84
2022/07/13 00:48:18;;;;;;;13.15;2.80;;;;;;;22.84;85.09;101071.50;4994448;28;20038;-85
2022/07/13 00:50:45;;;;;;;10.23;2.95;;;;;;;22.67;86.25;101064.03;4977055;28;20411;-82
2022/07/13 00:53:10;;;;;;;6.65;2.63;;;;;;;22.64;86.89;101066.34;4994400;28;20178;-84
2022/07/13 00:55:37;;;;;;;6.40;2.67;;;;;;;22.73;85.65;101070.44;4994802;28;20034;-83
2022/07/13 00:58:02;;;;;;;5.70;2.22;;;;;;;22.76;86.17;101074.56;4994222;28;20034;-80
2022/07/13 01:00:28;;;;;;;6.22;2.50;;;;;;;22.71;86.53;101072.53;4994474;28;20037;-84
2022/07/13 01:02:53;;;;;;;7.20;2.65;;;;;;;22.67;87.16;101077.56;4994301;28;20056;-84
2022/07/13 01:05:19;;;;;;;8.48;2.83;;;;;;;22.67;87.14;101071.31;4976960;28;20141;-85
2022/07/13 01:07:45;;;;;;;8.38;3.00;;;;;;;22.68;87.01;101072.97;4994251;28;20038;-85
2022/07/13 01:10:12;;;;;;;9.45;2.70;;;;;;;22.93;86.19;101079.09;4994664;28;20038;-83
2022/07/13 01:12:41;;;;;;;6.25;2.55;;;;;;;22.69;86.91;101063.84;4985756;28;20034;-85
2022/07/13 01:15:09;;;;;;;8.65;2.83;;;;;;;22.69;87.43;101069.22;5009004;28;20035;-84
2022/07/13 01:17:37;;;;;;;15.40;2.70;;;;;;;22.95;85.97;101076.97;5015111;28;20038;-82
2022/07/13 01:20:04;;;;;;;8.05;2.70;;;;;;;22.73;87.46;101069.59;5010867;28;20077;-82
2022/07/13 01:22:43;;;;;;;10.52;2.65;;;;;;;22.81;86.76;101072.81;4995219;28;20370;-82
2022/07/13 01:25:09;;;;;;;10.07;3.05;;;;;;;22.65;88.00;101078.81;4994431;28;20114;-84
2022/07/13 01:27:37;;;;;;;5.15;2.60;;;;;;;22.60;88.38;101073.28;4976923;28;20121;-82
2022/07/13 01:30:05;;;;;;;9.25;3.05;;;;;;;22.71;88.35;101083.34;4994257;28;20034;-83
2022/07/13 01:32:45;;;;;;;10.55;3.20;;;;;;;22.51;89.50;101077.31;4994306;28;20034;-82
2022/07/13 01:35:11;;;;;;;6.45;3.08;;;;;;;22.52;89.24;101081.69;4994051;28;20456;-84
2022/07/13 01:37:38;;;;;;;13.35;3.10;;;;;;;22.39;91.03;101089.94;4994119;28;20041;-84
2022/07/13 01:40:05;;;;;;;7.22;3.10;;;;;;;22.41;90.62;101087.84;4994089;28;20042;-82
2022/07/13 01:42:38;;;;;;;7.30;3.38;;;;;;;22.54;90.54;101093.91;4976449;28;20476;-85
2022/07/13 01:45:07;;;;;;;8.63;3.50;;;;;;;22.48;90.03;101086.72;4993666;28;20042;-83
2022/07/13 01:47:37;;;;;;;8.35;3.58;;;;;;;22.25;92.33;101077.63;4993446;28;20324;-84
2022/07/13 01:50:02;;;;;;;9.13;3.50;;;;;;;22.41;91.67;101091.38;4994033;28;20038;-83
2022/07/13 01:52:29;;;;;;;10.68;3.70;;;;;;;22.36;92.14;101082.28;4976256;28;20369;-83
2022/07/13 01:54:58;;;;;;;6.72;3.72;;;;;;;22.28;93.07;101082.59;4995683;28;20117;-81
2022/07/13 01:57:24;;;;;;;8.38;3.90;;;;;;;22.12;94.57;101084.84;4995930;28;20030;-83
2022/07/13 01:59:50;;;;;;;11.00;4.28;;;;;;;22.05;95.41;101092.19;4978386;28;20042;-83
2022/07/13 02:02:16;;;;;;;9.60;4.28;;;;;;;22.17;94.83;101091.44;4976990;28;20035;-83
2022/07/13 02:04:42;;;;;;;7.53;4.00;;;;;;;22.26;94.63;101090.09;4976810;28;20101;-83
2022/07/13 02:07:07;;;;;;;7.00;4.05;;;;;;;22.21;94.90;101090.75;4993802;28;20034;-83
2022/07/13 02:09:33;;;;;;;15.40;4.43;;;;;;;22.42;94.14;101094.91;4993439;28;20034;-82
2022/07/13 02:11:59;;;;;;;10.85;4.35;;;;;;;22.27;94.10;101091.75;4980123;28;20129;-84
2022/07/13 02:14:35;;;;;;;11.85;4.45;;;;;;;22.21;95.53;101093.47;4987591;28;20042;-83
2022/07/13 02:17:04;;;;;;;16.30;5.75;;;;;;;22.27;94.94;101086.34;4995483;28;20046;-84
2022/07/13 02:19:30;;;;;;;11.32;4.85;;;;;;;22.07;95.94;101087.38;4998535;28;20040;-83
2022/07/13 02:21:55;;;;;;;8.35;5.13;;;;;;;22.08;96.84;101096.31;4999066;28;20546;-82
2022/07/13 02:24:40;;;;;;;11.65;5.38;;;;;;;21.85;98.96;101094.22;4985188;28;20034;-85
2022/07/13 02:27:05;;;;;;;14.20;5.97;;;;;;;21.93;99.98;101102.06;4991913;28;20030;-80
2022/07/13 02:29:37;;;;;;;10.82;5.88;;;;;;;21.83;100.00;101103.59;5021562;28;20057;-82
2022/07/13 02:32:03;;;;;;;11.68;5.40;;;;;;;21.83;100.00;101103.59;5000072;28;20030;-81
2022/07/13 02:34:29;;;;;;;17.27;5.78;;;;;;;21.72;100.00;101097.03;4988142;28;20437;-83
2022/07/13 02:36:58;;;;;;;15.95;6.10;;;;;;;21.89;100.00;101102.69;5003964;28;20045;-81
2022/07/13 02:39:29;;;;;;;13.70;5.72;;;;;;;21.85;100.00;101105.00;4987187;28;20089;-82
2022/07/13 02:41:58;;;;;;;12.43;6.05;;;;;;;21.83;100.00;101101.72;4974955;28;20053;-82
2022/07/13 02:44:24;;;;;;;12.18;6.25;;;;;;;21.82;100.00;101104.63;5004143;28;20068;-82
2022/07/13 02:46:50;;;;;;;10.70;5.63;;;;;;;21.74;100.00;101097.66;5000076;28;20109;-84
2022/07/13 02:49:18;;;;;;;12.98;5.60;;;;;;;21.63;100.00;101109.16;4980351;28;20537;-80
2022/07/13 02:51:44;;;;;;;10.93;5.65;;;;;;;21.54;100.00;101107.78;4997363;28;20042;-84
2022/07/13 02:54:12;;;;;;;9.93;5.70;;;;;;;21.45;100.00;101103.69;4979882;28;20082;-81
2022/07/13 02:56:38;;;;;;;9.63;6.22;;;;;;;21.41;100.00;101105.19;4980962;28;20050;-82
2022/07/13 02:59:04;;;;;;;14.93;5.75;;;;;;;21.57;100.00;101104.66;4985469;28;20042;-84
2022/07/13 03:01:30;;;;;;;13.40;6.03;;;;;;;21.49;100.00;101099.50;4980811;28;20050;-83
2022/07/13 03:03:57;;;;;;;11.98;6.22;;;;;;;21.58;100.00;101100.88;4997670;28;20038;-83
2022/07/13 03:06:23;;;;;;;9.75;5.43;;;;;;;21.52;100.00;101104.47;4996832;28;20088;-84
2022/07/13 03:08:48;;;;;;;11.55;5.57;;;;;;;21.42;100.00;101098.72;4996250;28;20476;-85
2022/07/13 03:11:14;;;;;;;11.25;5.22;;;;;;;21.33;100.00;101100.03;4996196;28;20038;-83
2022/07/13 03:13:40;;;;;;;10.82;5.10;;;;;;;21.24;100.00;101098.66;4978456;28;20541;-83
2022/07/13 03:16:06;;;;;;;10.90;5.70;;;;;;;21.30;100.00;101104.00;4978647;28;20031;-84
2022/07/13 03:18:33;;;;;;;7.40;5.55;;;;;;;21.30;100.00;101100.47;4978650;28;20043;-82
2022/07/13 03:20:59;;;;;;;9.27;6.45;;;;;;;21.33;100.00;101116.22;4978911;28;20034;-83
2022/07/13 03:23:25;;;;;;;17.13;6.13;;;;;;;21.31;100.00;101118.31;4978870;28;20066;-81
2022/07/13 03:25:51;;;;;;;9.77;5.90;;;;;;;21.27;100.00;101125.19;4978724;28;20116;-82
2022/07/13 03:28:16;;;;;;;9.45;5.65;;;;;;;21.35;100.00;101119.50;4978692;28;20491;-85
2022/07/13 03:30:42;;;;;;;10.85;6.10;;;;;;;21.22;100.00;101125.81;4996235;28;20042;-82
2022/07/13 03:33:07;;;;;;;10.07;5.35;;;;;;;21.27;100.00;101130.59;4978848;28;20041;-82
2022/07/13 03:35:33;;;;;;;13.35;5.70;;;;;;;21.47;100.00;101133.97;4996726;28;20046;-81
2022/07/13 03:37:59;;;;;;;10.45;5.32;;;;;;;21.31;100.00;101135.31;4978672;28;20554;-84
2022/07/13 03:40:28;;;;;;;12.00;4.60;;;;;;;21.27;100.00;101133.28;4977846;28;20504;-85
2022/07/13 03:42:54;;;;;;;11.38;5.18;;;;;;;21.21;100.00;101128.75;4978508;28;20421;-83
2022/07/13 03:45:20;;;;;;;10.80;5.15;;;;;;;21.23;100.00;101138.28;4978588;28;20030;-81
2022/07/13 03:47:46;;;;;;;23.98;5.47;;;;;;;21.16;100.00;101131.25;4978372;28;20125;-84
2022/07/13 03:50:12;;;;;;;14.70;5.72;;;;;;;21.04;100.00;101134.63;4962941;28;20373;-84
2022/07/13 03:52:41;;;;;;;12.43;5.43;;;;;;;20.90;100.00;101143.81;4978799;28;20046;-82
2022/07/13 03:55:09;;;;;;;12.07;6.70;;;;;;;20.83;100.00;101139.50;4978289;28;20046;-84
2022/07/13 03:57:35;;;;;;;10.80;5.68;;;;;;;20.74;100.00;101136.22;4962430;28;20092;-83
2022/07/13 04:00:03;;;;;;;10.32;6.07;;;;;;;20.76;100.00;101142.22;4978312;28;20038;-82
2022/07/13 04:02:29;;;;;;;10.95;5.47;;;;;;;20.72;100.00;101135.59;4996501;28;20387;-85
2022/07/13 04:04:54;;;;;;;13.48;6.18;;;;;;;20.73;100.00;101131.88;4978140;28;20034;-84
2022/07/13 04:07:21;;;;;;;15.90;5.50;;;;;;;20.73;100.00;101137.25;4977776;28;20034;-84
2022/07/13 04:09:50;;;;;;;17.15;6.20;;;;;;;20.69;100.00;101146.78;4978326;28;20472;-81
2022/07/13 04:12:21;;;;;;;13.02;5.30;;;;;;;20.69;100.00;101146.78;4995555;28;20036;-82
2022/07/13 04:14:48;;;;;;;11.53;5.57;;;;;;;20.72;100.00;101145.53;4995282;28;20480;-81
2022/07/13 04:17:14;;;;;;;15.32;5.82;;;;;;;20.68;100.00;101142.47;4978025;28;20107;-81
2022/07/13 04:19:39;;;;;;;14.65;6.00;;;;;;;20.69;100.00;101152.19;4996499;28;20042;-83
2022/07/13 04:22:05;;;;;;;11.40;6.03;;;;;;;20.72;100.00;101153.63;4996173;28;20073;-83
2022/07/13 04:24:35;;;;;;;17.42;6.47;;;;;;;20.66;100.00;101151.78;4996750;28;20043;-83
2022/07/13 04:27:01;;;;;;;13.07;7.05;;;;;;;20.65;100.00;101150.16;4978522;28;20045;-84
2022/07/13 04:29:27;;;;;;;13.52;6.88;;;;;;;20.74;100.00;101155.06;4981815;28;20030;-83
2022/07/13 04:31:52;;;;;;;15.60;7.03;;;;;;;20.70;100.00;101153.84;4997582;28;20030;-80
2022/07/13 04:34:18;;;;;;;13.52;7.40;;;;;;;20.67;100.00;101158.81;4977721;28;20042;-83
2022/07/13 04:36:44;;;;;;;12.02;7.00;;;;;;;20.68;100.00;101165.88;4999764;28;20050;-84
2022/07/13 04:39:10;;;;;;;13.52;7.65;;;;;;;20.59;100.00;101166.09;4981858;28;20038;-84
2022/07/13 04:41:36;;;;;;;12.95;8.02;;;;;;;20.65;100.00;101166.31;4977659;28;20066;-84
2022/07/13 04:44:01;;;;;;;17.25;8.57;;;;;;;20.54;100.00;101175.84;4979323;28;20129;-85
2022/07/13 04:46:27;;;;;;;14.27;8.32;;;;;;;20.62;100.00;101171.06;4984726;28;20034;-81
2022/07/13 04:48:54;;;;;;;18.08;8.30;;;;;;;20.71;100.00;101171.66;4977023;28;20034;-84
2022/07/13 04:51:20;;;;;;;13.50;8.40;;;;;;;20.84;100.00;101179.69;4994826;28;20037;-82
2022/07/13 04:53:48;;;;;;;15.52;9.35;;;;;;;20.82;100.00;101183.63;4977007;28;20038;-82
2022/07/13 04:56:14;;;;;;;21.52;9.32;;;;;;;20.77;100.00;101186.97;4977077;28;20038;-83
2022/07/13 04:58:39;;;;;;;15.50;9.05;;;;;;;20.76;100.00;101185.31;4977035;28;20120;-82
2022/07/13 05:01:06;;;;;;;16.55;8.77;;;;;;;20.92;100.00;101194.78;4977059;28;20030;-83
2022/07/13 05:03:33;;;;;;;13.00;8.50;;;;;;;21.17;100.00;101200.31;4977102;28;20043;-83
2022/07/13 05:06:03;;;;;;;20.65;9.82;;;;;;;21.00;100.00;101208.88;4977225;28;20031;-82
2022/07/13 05:08:29;;;;;;;22.17;9.93;;;;;;;20.99;100.00;101206.38;4994303;28;20034;-81
2022/07/13 05:10:54;;;;;;;17.25;9.20;;;;;;;21.26;100.00;101210.63;4976556;28;20065;-84
2022/07/13 05:13:20;;;;;;;22.23;10.40;;;;;;;21.34;100.00;101217.66;4976801;28;20033;-81
2022/07/13 05:15:48;;;;;;;15.45;9.07;;;;;;;21.42;100.00;101212.00;4976768;28;20376;-84
2022/07/13 05:18:17;;;;;;;23.65;10.70;;;;;;;21.48;100.00;101216.53;4976886;28;20121;-82
2022/07/13 05:20:43;;;;;;;20.08;10.18;;;;;;;21.45;100.00;101216.94;4980251;28;20109;-83
2022/07/13 05:23:08;;;;;;;17.83;9.82;;;;;;;21.40;100.00;101220.31;4991538;28;20034;-80
2022/07/13 05:25:35;;;;;;;14.15;9.88;;;;;;;21.49;100.00;101226.28;4997887;28;20121;-83
2022/07/13 05:28:01;;;;;;;19.20;10.02;;;;;;;21.66;100.00;101222.03;4985250;28;20065;-81
2022/07/13 05:30:28;;;;;;;19.92;10.07;;;;;;;21.73;100.00;101220.13;4997878;28;20062;-83
2022/07/13 05:32:58;;;;;;;17.35;10.30;;;;;;;21.69;100.00;101226.97;4999237;28;20015;-79
2022/07/13 05:35:23;;;;;;;16.23;10.90;;;;;;;21.74;100.00;101227.19;5006591;28;20507;-84
2022/07/13 05:37:50;;;;;;;21.80;11.25;;;;;;;21.79;100.00;101229.19;4980657;28;20064;-89
2022/07/13 05:40:17;;;;;;;23.38;10.15;;;;;;;21.84;100.00;101227.50;4980676;28;20042;-88
2022/07/13 05:42:42;;;;;;;22.92;11.00;;;;;;;21.99;100.00;101233.44;4980205;28;20133;-91
2022/07/13 05:45:09;;;;;;;20.70;10.90;;;;;;;22.02;100.00;101226.78;4980165;28;20117;-86
2022/07/13 05:47:36;;;;;;;19.55;10.05;;;;;;;22.28;100.00;101228.41;4996547;28;20442;-85
2022/07/13 05:50:03;;;;;;;18.88;11.20;;;;;;;22.35;100.00;101230.00;4978105;28;20100;-88
2022/07/13 05:52:29;;;;;;;19.73;10.38;;;;;;;22.41;100.00;101244.50;4978145;28;20026;-89
2022/07/13 05:54:57;;;;;;;33.42;11.43;;;;;;;22.34;100.00;101235.66;4977620;28;20042;-84
2022/07/13 05:57:22;;;;;;;21.80;11.98;;;;;;;22.39;100.00;101235.81;4995368;28;20391;-86
2022/07/13 05:59:48;;;;;;;16.52;10.45;;;;;;;22.48;100.00;101234.47;4994193;28;20041;-83
2022/07/13 06:02:13;;;;;;;22.10;10.45;;;;;;;22.52;100.00;101236.50;4994008;28;20048;-78
2022/07/13 06:04:39;;;;;;;21.67;10.77;;;;;;;22.58;100.00;101234.78;4976548;28;20059;-81
2022/07/13 06:07:05;;;;;;;22.05;10.35;;;;;;;23.00;100.00;101246.63;4993789;28;20046;-81
2022/07/13 06:09:30;;;;;;;22.45;11.27;;;;;;;23.10;100.00;101250.44;4994190;28;20435;-82
2022/07/13 06:11:59;;;;;;;21.33;10.65;;;;;;;23.11;100.00;101241.28;4976506;28;20049;-83
2022/07/13 06:14:25;;;;;;;15.55;9.55;;;;;;;23.34;100.00;101243.28;4993516;28;20118;-84
2022/07/13 06:16:51;;;;;;;16.17;8.57;;;;;;;23.55;100.00;101250.09;4994144;28;20046;-83
2022/07/13 06:19:16;;;;;;;18.52;8.70;;;;;;;23.59;100.00;101254.00;4994847;28;20046;-85
2022/07/13 06:21:42;;;;;;;16.25;7.55;;;;;;;23.98;100.00;101256.13;4999532;28;20098;-84
2022/07/13 06:24:08;;;;;;;12.98;8.98;;;;;;;24.01;100.00;101255.66;4994021;28;20045;-85
2022/07/13 06:26:33;;;;;;;13.02;7.50;;;;;;;24.53;100.00;101258.56;4994870;28;20037;-84
2022/07/13 06:28:59;;;;;;;15.85;7.55;;;;;;;25.14;97.87;101264.28;4993715;28;20105;-86
2022/07/13 06:31:24;;;;;;;19.73;7.32;;;;;;;25.67;94.76;101268.63;4994224;28;20030;-83
2022/07/13 06:33:52;;;;;;;12.07;6.28;;;;;;;25.47;93.71;101268.19;4995652;28;20033;-86
2022/07/13 06:36:18;;;;;;;10.65;6.05;;;;;;;25.79;91.09;101266.66;4994565;28;20042;-86
2022/07/13 06:38:49;;;;;;;14.63;6.40;;;;;;;25.85;90.18;101276.56;4990284;28;20424;-83
2022/07/13 06:41:15;;;;;;;17.30;6.75;;;;;;;26.04;89.58;101279.88;5006628;28;20093;-85
2022/07/13 06:43:44;;;;;;;16.70;5.85;;;;;;;25.93;89.73;101278.88;5007075;28;20034;-88
2022/07/13 06:46:10;;;;;;;23.35;6.43;;;;;;;25.50;92.48;101267.75;4991787;28;20069;-86
2022/07/13 06:52:25;;;;;;;19.17;4.80;;;;;;;27.19;82.41;101277.28;4994008;28;20069;-82
2022/07/13 06:55:12;;;;;;;14.48;4.40;;;;;;;27.97;77.02;101285.00;5001142;28;20022;-85
2022/07/13 06:57:38;;;;;;;9.30;4.45;;;;;;;27.09;79.56;101272.53;5018241;28;20045;-81
2022/07/13 07:00:05;;;;;;;10.27;4.55;;;;;;;26.69;82.50;101272.78;5017513;28;20030;-87
2022/07/13 07:02:31;;;;;;;12.85;4.78;;;;;;;26.52;84.22;101276.59;4984953;28;20033;-87
2022/07/13 07:04:56;;;;;;;12.88;4.88;;;;;;;26.49;82.88;101274.38;5018031;28;20085;-84
2022/07/13 07:07:24;;;;;;;10.65;4.80;;;;;;;26.30;83.94;101271.09;4992159;28;20034;-89
2022/07/13 07:09:50;;;;;;;14.27;5.00;;;;;;;26.63;80.65;101272.97;4984145;28;20459;-87
2022/07/13 07:12:16;;;;;;;13.27;5.22;;;;;;;26.83;80.28;101273.28;4993206;28;20063;-85
2022/07/13 07:14:43;;;;;;;11.18;4.47;;;;;;;26.25;83.19;101265.56;4994448;28;20034;-86
2022/07/13 07:17:10;;;;;;;15.32;5.07;;;;;;;26.71;80.52;101261.69;4995029;28;20051;-85
2022/07/13 07:19:35;;;;;;;10.20;4.45;;;;;;;27.43;76.42;101256.06;4979034;28;20046;-86
2022/07/13 07:22:01;;;;;;;8.65;4.57;;;;;;;27.53;75.86;101258.94;4962237;28;20039;-84
2022/07/13 07:24:26;;;;;;;18.52;4.53;;;;;;;27.00;79.13;101257.75;4996268;28;20044;-83
2022/07/13 07:26:52;;;;;;;8.57;3.95;;;;;;;27.90;74.12;101265.31;4978257;28;20045;-83
2022/07/13 07:29:18;;;;;;;14.05;4.10;;;;;;;27.85;73.31;101259.81;4978457;28;20484;-83
2022/07/13 07:31:43;;;;;;;9.25;3.60;;;;;;;27.48;74.36;101264.31;4996148;28;20074;-86
2022/07/13 07:34:09;;;;;;;19.02;3.95;;;;;;;27.59;73.51;101261.47;4978698;28;20038;-83
2022/07/13 07:36:35;;;;;;;13.50;4.40;;;;;;;28.12;70.84;101260.63;4978514;28;20092;-82
2022/07/13 07:39:00;;;;;;;12.43;3.13;;;;;;;28.00;72.58;101265.41;4995627;28;20484;-83
2022/07/13 07:41:26;;;;;;;12.35;3.20;;;;;;;27.87;71.98;101268.56;4995469;28;20514;-83
2022/07/13 07:43:51;;;;;;;6.68;2.53;;;;;;;28.57;68.93;101265.56;4995600;28;20034;-87
2022/07/13 07:46:17;;;;;;;12.35;3.33;;;;;;;27.91;70.13;101266.09;4995672;28;20034;-86
2022/07/13 07:48:46;;;;;;;9.55;3.03;;;;;;;28.55;68.10;101264.19;4995543;28;20113;-90
2022/07/13 07:51:11;;;;;;;12.20;2.70;;;;;;;28.58;66.53;101264.50;4995313;28;20034;-85
2022/07/13 07:53:37;;;;;;;7.30;2.60;;;;;;;28.55;65.27;101264.19;4976299;28;20164;-87
2022/07/13 07:56:05;;;;;;;6.60;3.10;;;;;;;28.69;65.37;101257.25;4992969;28;20039;-88
2022/07/13 07:58:31;;;;;;;9.68;2.30;;;;;;;28.69;66.25;101254.50;4988371;28;20472;-89
2022/07/13 08:00:57;;;;;;;7.63;2.60;;;;;;;29.50;60.80;101254.88;4974530;28;20050;-88
2022/07/13 08:03:22;;;;;;;4.60;2.40;;;;;;;29.24;61.36;101252.03;4989632;28;20480;-88
2022/07/13 08:05:52;;;;;;;12.10;2.35;;;;;;;29.12;62.35;101247.88;4981711;28;20045;-87
2022/07/13 08:08:18;;;;;;;8.68;2.42;;;;;;;28.61;60.91;101253.06;4990209;28;20119;-87
2022/07/13 08:10:50;;;;;;;10.27;3.50;;;;;;;27.97;65.07;101241.41;4987910;28;20471;-86
2022/07/13 08:13:16;;;;;;;6.60;2.60;;;;;;;28.72;62.27;101243.91;4986175;28;20515;-86
2022/07/13 08:15:42;;;;;;;9.48;2.88;;;;;;;28.46;63.36;101238.50;4971089;28;20030;-91
2022/07/13 08:18:09;;;;;;;10.05;2.55;;;;;;;28.97;59.68;101248.63;5001787;28;20412;-87
2022/07/13 08:20:43;;;;;;;4.10;2.38;;;;;;;28.80;58.99;101237.13;5018918;28;20034;-87
2022/07/13 08:26:07;;;;;;;7.88;1.92;;;;;;;29.17;53.32;101242.44;4976595;28;20070;-87
2022/07/13 08:28:32;;;;;;;4.82;1.85;;;;;;;28.73;54.95;101240.09;4998029;28;20038;-86
2022/07/13 08:30:58;;;;;;;6.82;1.95;;;;;;;28.77;56.54;101239.56;4985931;28;20490;-87
2022/07/13 08:38:34;;;;;;;6.15;2.13;;;;;;;29.17;54.95;101235.06;4984380;28;20038;-90
2022/07/13 08:39:05;;;;;;;6.40;2.25;;;;;;;30.02;51.85;101228.19;4992038;28;20048;-90
2022/07/13 08:41:32;;;;;;;8.02;2.60;;;;;;;30.01;52.04;101239.38;4965154;28;20038;-89
2022/07/13 08:43:58;;;;;;;8.38;2.03;;;;;;;29.66;52.05;101230.03;4973376;28;20473;-89
2022/07/13 08:46:25;;;;;;;5.10;2.10;;;;;;;29.47;53.47;101219.88;4971620;28;20487;-87
2022/07/13 08:48:53;;;;;;;10.75;2.17;;;;;;;29.38;52.89;101214.16;4969173;28;20041;-87
2022/07/13 08:51:21;;;;;;;7.47;1.80;;;;;;;29.95;50.12;101235.00;4951632;28;20034;-85
2022/07/13 08:53:56;;;;;;;9.90;1.75;;;;;;;29.94;48.79;101225.97;4994688;28;20042;-87
2022/07/13 08:56:21;;;;;;;5.20;1.33;;;;;;;29.64;47.22;101228.66;4996398;28;20480;-86
2022/07/13 08:58:50;;;;;;;3.33;1.50;;;;;;;29.90;46.79;101232.25;4998292;28;20033;-86
2022/07/13 09:01:15;;;;;;;3.45;1.50;;;;;;;30.24;46.21;101222.41;5001136;28;20031;-89
2022/07/13 09:03:42;;;;;;;8.32;1.83;;;;;;;30.24;47.19;101233.34;4961213;28;20113;-91
2022/07/13 09:06:08;;;;;;;4.85;1.77;;;;;;;29.79;47.25;101238.81;4976788;28;20101;-91
2022/07/13 09:08:43;;;;;;;10.55;1.73;;;;;;;29.81;46.58;101218.31;4980007;28;20070;-89
2022/07/13 09:11:09;;;;;;;6.85;1.42;;;;;;;30.44;45.63;101216.94;4982943;28;20038;-89
2022/07/13 09:13:39;;;;;;;3.58;1.60;;;;;;;30.57;45.82;101221.00;4979806;28;20030;-91
2022/07/13 09:16:21;;;;;;;2.10;1.15;;;;;;;30.08;44.72;101221.63;4980967;28;20039;-88
2022/07/13 09:19:00;;;;;;;3.55;1.40;;;;;;;30.57;44.20;101230.03;4997392;28;20027;-88
2022/07/13 09:21:27;;;;;;;8.50;1.42;;;;;;;30.55;44.49;101223.22;4995662;28;20030;-92
2022/07/13 09:23:57;;;;;;;5.90;1.38;;;;;;;30.57;43.14;101218.28;4980154;28;20034;-92
2022/07/13 09:26:23;;;;;;;4.32;1.50;;;;;;;30.97;41.90;101215.44;4998360;28;20108;-90
2022/07/13 09:28:55;;;;;;;3.50;1.40;;;;;;;30.71;42.24;101216.59;4979033;28;20042;-93
2022/07/13 09:31:22;;;;;;;;;;;;;;;30.54;42.01;101221.56;4962785;28;20054;-90
2022/07/13 09:33:49;;;;;;;8.23;1.10;;;;;;;30.48;42.39;101217.22;4971843;28;19937;-89
2022/07/13 09:39:11;;;;;;;3.58;1.20;;;;;;;30.21;42.10;101212.03;4948787;29;20146;-89
2022/07/13 09:41:37;;;;;;;9.77;1.33;;;;;;;30.31;41.35;101222.13;4958966;29;20032;-90
2022/07/13 09:47:03;;;;;;;6.00;1.10;;;;;;;30.58;39.99;101222.66;4945673;29;20043;-90
2022/07/13 09:49:35;;;;;;;4.22;1.20;;;;;;;30.90;39.85;101225.00;4943921;29;20043;-91
2022/07/13 09:52:04;;;;;;;6.25;1.60;;;;;;;31.46;38.38;101217.34;4927041;29;20130;-89
2022/07/13 09:54:33;;;;;;;6.10;1.08;;;;;;;32.06;37.87;101216.13;4937516;29;20043;-91
2022/07/13 09:57:11;;;;;;;7.82;1.20;;;;;;;31.56;37.73;101222.78;4943996;29;20058;-90
2022/07/13 09:59:43;;;;;;;4.47;1.00;;;;;;;31.36;37.08;101220.16;4961896;29;20082;-94
2022/07/13 10:05:01;;;;;;;5.13;1.10;;;;;;;31.73;36.71;101217.72;4980084;28;20061;-91
2022/07/13 10:07:29;;;;;;;7.13;1.35;;;;;;;31.93;36.53;101217.56;4962331;28;20034;-92
2022/07/13 10:09:57;;;;;;;2.42;1.30;;;;;;;31.49;37.38;101222.25;4979484;28;20045;-92
2022/07/13 10:12:23;;;;;;;5.07;1.40;;;;;;;31.54;37.75;101230.50;4980725;28;20089;-90
2022/07/13 10:14:49;;;;;;;4.85;1.55;;;;;;;31.86;36.93;101230.78;4980788;28;20026;-89
2022/07/13 10:17:20;;;;;;;6.20;1.38;;;;;;;31.73;36.94;101217.72;4968306;28;20408;-89
2022/07/13 10:20:15;;;;;;;5.60;1.42;;;;;;;32.05;36.38;101239.19;4962993;28;20089;-91
2022/07/13 10:23:06;;;;;;;9.05;1.40;;;;;;;31.72;36.48;101227.06;4960553;28;20053;-92
2022/07/13 10:28:07;;;;;;;1.40;0.90;;;;;;;32.02;35.53;101226.81;5027807;22;20138;-91
2022/07/13 10:30:33;;;;;;;5.75;1.20;;;;;;;31.92;34.77;101224.16;5000723;28;20038;-90
2022/07/13 10:33:19;;;;;;;1.50;1.30;;;;;;;31.98;34.79;101222.22;4991796;28;20045;-88
2022/07/13 10:35:52;;;;;;;12.43;5.07;;;;;;;32.18;34.55;101220.09;5000157;28;20035;-86
2022/07/13 10:38:27;;;;;;;4.15;1.20;;;;;;;31.70;35.30;101223.78;5013615;28;20038;-91
2022/07/13 10:41:44;;;;;;;4.25;1.20;;;;;;;31.45;35.28;101210.25;5154929;23;20509;-87
2022/07/13 10:44:54;;;;;;;6.15;1.00;;;;;;;31.97;34.97;101212.34;5015992;28;20066;-86
2022/07/13 10:47:50;;;;;;;7.60;1.30;;;;;;;32.35;34.49;101230.66;5006925;28;20038;-87
2022/07/13 10:50:58;;;;;;;1.60;0.90;;;;;;;32.45;34.00;101205.06;5001783;28;20054;-87
2022/07/13 10:54:22;;;;;;;5.90;1.08;;;;;;;32.55;34.14;101202.16;5010744;28;20403;-88
2022/07/13 10:57:18;;;;;;;1.48;0.90;;;;;;;33.34;32.49;101204.25;5039671;28;20036;-87
2022/07/13 10:59:47;;;;;;;1.58;0.82;;;;;;;33.79;31.15;101197.22;5003432;28;20037;-79
2022/07/13 11:03:01;;;;;;;1.83;1.02;;;;;;;33.53;31.39;101194.06;5002540;28;20066;-86
2022/07/13 11:05:34;;;;;;;4.07;1.17;;;;;;;32.99;31.03;101205.50;4943473;29;20052;-87
2022/07/13 11:08:15;;;;;;;3.88;0.88;;;;;;;32.54;31.72;101201.38;4959508;29;20048;-86
2022/07/13 11:12:07;;;;;;;5.05;1.10;;;;;;;32.16;31.34;101197.66;4958013;29;20060;-90
2022/07/13 11:15:59;;;;;;;8.27;1.07;;;;;;;32.18;31.11;101187.19;4933846;29;20032;-87
2022/07/13 11:18:59;;;;;;;6.40;1.10;;;;;;;32.63;31.09;101190.59;5012596;23;20459;-88
2022/07/13 11:25:23;;;;;;;2.13;1.10;;;;;;;32.33;31.18;101185.41;3045604;26;20047;-87
2022/07/13 11:28:20;;;;;;;3.42;0.85;;;;;;;32.61;30.89;101179.91;5032367;28;20046;-84
2022/07/13 11:31:30;;;;;;;3.95;1.10;;;;;;;32.84;31.21;101172.75;5036278;28;20114;-87
2022/07/13 11:34:02;;;;;;;2.72;1.00;;;;;;;32.42;31.86;101180.91;5019305;28;20057;-87
2022/07/13 11:36:39;;;;;;;8.07;1.20;;;;;;;31.83;33.10;101184.75;4985689;28;20053;-79
2022/07/13 11:39:37;;;;;;;7.03;1.08;;;;;;;31.61;33.98;101171.53;5013199;28;20035;-81
2022/07/13 11:42:10;;;;;;;4.43;1.10;;;;;;;31.41;34.45;101168.06;4993544;28;20046;-84
2022/07/13 11:44:38;;;;;;;7.32;1.40;;;;;;;31.45;33.86;101171.88;5013826;28;20403;-76
2022/07/13 11:47:08;;;;;;;3.55;1.10;;;;;;;31.44;33.84;101165.59;4982202;28;20030;-87
2022/07/13 11:50:11;;;;;;;4.50;1.50;;;;;;;31.47;33.57;101145.00;5087132;22;20041;-88
2022/07/13 11:52:42;;;;;;;2.58;1.08;;;;;;;31.53;33.76;101155.69;4991558;28;20087;-92
2022/07/13 11:55:17;;;;;;;4.20;0.90;;;;;;;31.68;32.46;101146.53;4996555;28;20062;-82